sensor_id;sensor_type;location;lat;lon;timestamp;P1;durP1;ratioP1;P2;durP2;ratioP2
21581;SDS011;10952;50.836;4.348;2022-09-20T00:01:06;8.53;;;2.20;;
21581;SDS011;10952;50.836;4.348;2022-09-20T00:03:38;3.93;;;1.90;;
21581;SDS011;10952;50.836;4.348;2022-09-20T00:06:09;11.10;;;2.27;;
21581;SDS011;10952;50.836;4.348;2022-09-20T00:08:37;9.43;;;2.20;;
21581;SDS011;10952;50.836;4.348;2022-09-20T00:11:05;5.53;;;2.30;;
21581;SDS011;10952;50.836;4.348;2022-09-20T00:13:36;9.67;;;2.50;;
21581;SDS011;10952;50.836;4.348;2022-09-20T00:16:10;7.83;;;2.13;;
21581;SDS011;10952;50.836;4.348;2022-09-20T00:18:38;4.87;;;2.33;;
21581;SDS011;10952;50.836;4.348;2022-09-20T00:21:04;11.07;;;2.60;;
21581;SDS011;10952;50.836;4.348;2022-09-20T00:23:31;9.63;;;2.83;;
21581;SDS011;10952;50.836;4.348;2022-09-20T00:26:03;7.10;;;2.30;;
21581;SDS011;10952;50.836;4.348;2022-09-20T00:28:30;8.77;;;2.10;;
21581;SDS011;10952;50.836;4.348;2022-09-20T00:30:56;9.47;;;2.00;;
21581;SDS011;10952;50.836;4.348;2022-09-20T00:33:23;7.57;;;2.40;;
21581;SDS011;10952;50.836;4.348;2022-09-20T00:36:09;8.70;;;2.60;;
21581;SDS011;10952;50.836;4.348;2022-09-20T00:38:36;5.33;;;2.03;;
21581;SDS011;10952;50.836;4.348;2022-09-20T00:41:01;7.47;;;2.10;;
21581;SDS011;10952;50.836;4.348;2022-09-20T00:43:43;5.90;;;2.30;;
21581;SDS011;10952;50.836;4.348;2022-09-20T00:49:20;7.40;;;2.10;;
21581;SDS011;10952;50.836;4.348;2022-09-20T00:51:51;6.50;;;2.30;;
21581;SDS011;10952;50.836;4.348;2022-09-20T00:54:20;8.57;;;2.47;;
21581;SDS011;10952;50.836;4.348;2022-09-20T00:56:49;6.40;;;2.20;;
21581;SDS011;10952;50.836;4.348;2022-09-20T00:59:29;9.00;;;2.73;;
21581;SDS011;10952;50.836;4.348;2022-09-20T01:02:01;5.57;;;2.50;;
21581;SDS011;10952;50.836;4.348;2022-09-20T01:04:31;6.37;;;2.17;;
21581;SDS011;10952;50.836;4.348;2022-09-20T01:07:01;6.07;;;2.27;;
21581;SDS011;10952;50.836;4.348;2022-09-20T01:09:29;11.27;;;4.63;;
21581;SDS011;10952;50.836;4.348;2022-09-20T01:11:55;12.13;;;2.63;;
21581;SDS011;10952;50.836;4.348;2022-09-20T01:14:27;7.30;;;3.07;;
21581;SDS011;10952;50.836;4.348;2022-09-20T01:16:53;8.00;;;2.60;;
21581;SDS011;10952;50.836;4.348;2022-09-20T01:22:15;6.90;;;2.30;;
21581;SDS011;10952;50.836;4.348;2022-09-20T01:24:53;6.60;;;2.47;;
21581;SDS011;10952;50.836;4.348;2022-09-20T01:27:47;7.03;;;2.80;;
21581;SDS011;10952;50.836;4.348;2022-09-20T01:30:16;8.63;;;2.80;;
21581;SDS011;10952;50.836;4.348;2022-09-20T01:33:04;8.00;;;3.20;;
21581;SDS011;10952;50.836;4.348;2022-09-20T01:35:44;7.03;;;2.77;;
21581;SDS011;10952;50.836;4.348;2022-09-20T01:38:24;5.63;;;2.60;;
21581;SDS011;10952;50.836;4.348;2022-09-20T01:41:18;9.20;;;2.97;;
21581;SDS011;10952;50.836;4.348;2022-09-20T01:44:09;6.83;;;2.67;;
21581;SDS011;10952;50.836;4.348;2022-09-20T01:46:36;6.77;;;3.00;;
21581;SDS011;10952;50.836;4.348;2022-09-20T02:00:26;8.90;;;3.20;;
21581;SDS011;10952;50.836;4.348;2022-09-20T02:11:11;8.67;;;3.00;;
21581;SDS011;10952;50.836;4.348;2022-09-20T02:25:00;8.77;;;3.27;;
21581;SDS011;10952;50.836;4.348;2022-09-20T02:36:40;5.87;;;3.60;;
21581;SDS011;10952;50.836;4.348;2022-09-20T02:39:35;11.17;;;4.23;;
21581;SDS011;10952;50.836;4.348;2022-09-20T02:42:28;6.60;;;3.90;;
21581;SDS011;10952;50.836;4.348;2022-09-20T02:45:08;9.30;;;3.80;;
21581;SDS011;10952;50.836;4.348;2022-09-20T02:47:43;8.27;;;3.93;;
21581;SDS011;10952;50.836;4.348;2022-09-20T03:09:06;11.83;;;4.20;;
21581;SDS011;10952;50.836;4.348;2022-09-20T03:12:03;11.80;;;4.80;;
21581;SDS011;10952;50.836;4.348;2022-09-20T03:47:56;10.07;;;4.17;;
21581;SDS011;10952;50.836;4.348;2022-09-20T03:50:31;12.70;;;4.63;;
21581;SDS011;10952;50.836;4.348;2022-09-20T03:59:17;9.47;;;3.63;;
21581;SDS011;10952;50.836;4.348;2022-09-20T04:01:54;9.67;;;4.03;;
21581;SDS011;10952;50.836;4.348;2022-09-20T04:04:57;9.07;;;4.07;;
21581;SDS011;10952;50.836;4.348;2022-09-20T04:10:49;9.80;;;3.30;;
21581;SDS011;10952;50.836;4.348;2022-09-20T04:13:39;7.80;;;3.93;;
21581;SDS011;10952;50.836;4.348;2022-09-20T04:19:11;7.63;;;4.17;;
21581;SDS011;10952;50.836;4.348;2022-09-20T04:21:59;9.90;;;3.30;;
21581;SDS011;10952;50.836;4.348;2022-09-20T04:32:47;9.90;;;4.27;;
21581;SDS011;10952;50.836;4.348;2022-09-20T04:38:18;13.80;;;4.43;;
21581;SDS011;10952;50.836;4.348;2022-09-20T05:10:33;12.40;;;4.77;;
21581;SDS011;10952;50.836;4.348;2022-09-20T05:19:04;12.63;;;5.50;;
21581;SDS011;10952;50.836;4.348;2022-09-20T05:23:51;12.30;;;5.17;;
21581;SDS011;10952;50.836;4.348;2022-09-20T05:29:35;11.43;;;5.27;;
21581;SDS011;10952;50.836;4.348;2022-09-20T05:32:28;12.43;;;5.57;;
21581;SDS011;10952;50.836;4.348;2022-09-20T05:43:08;14.10;;;4.90;;
21581;SDS011;10952;50.836;4.348;2022-09-20T05:51:08;17.93;;;5.87;;
21581;SDS011;10952;50.836;4.348;2022-09-20T06:09:05;17.80;;;6.33;;
21581;SDS011;10952;50.836;4.348;2022-09-20T06:17:04;22.07;;;9.03;;
21581;SDS011;10952;50.836;4.348;2022-09-20T06:22:44;11.50;;;5.43;;
21581;SDS011;10952;50.836;4.348;2022-09-20T06:28:18;20.10;;;6.50;;
21581;SDS011;10952;50.836;4.348;2022-09-20T06:30:50;13.30;;;6.33;;
21581;SDS011;10952;50.836;4.348;2022-09-20T06:33:21;16.80;;;6.37;;
21581;SDS011;10952;50.836;4.348;2022-09-20T06:41:41;16.07;;;8.53;;
21581;SDS011;10952;50.836;4.348;2022-09-20T06:44:08;18.43;;;7.20;;
21581;SDS011;10952;50.836;4.348;2022-09-20T06:46:34;21.53;;;10.83;;
21581;SDS011;10952;50.836;4.348;2022-09-20T06:49:01;17.97;;;7.80;;
21581;SDS011;10952;50.836;4.348;2022-09-20T06:51:32;18.67;;;6.50;;
21581;SDS011;10952;50.836;4.348;2022-09-20T06:53:59;17.37;;;7.00;;
21581;SDS011;10952;50.836;4.348;2022-09-20T06:56:27;21.07;;;8.03;;
21581;SDS011;10952;50.836;4.348;2022-09-20T06:58:54;21.60;;;7.50;;
21581;SDS011;10952;50.836;4.348;2022-09-20T07:01:21;20.53;;;7.37;;
21581;SDS011;10952;50.836;4.348;2022-09-20T07:03:50;20.13;;;7.20;;
21581;SDS011;10952;50.836;4.348;2022-09-20T07:06:17;20.00;;;6.50;;
21581;SDS011;10952;50.836;4.348;2022-09-20T07:08:45;17.43;;;7.47;;
21581;SDS011;10952;50.836;4.348;2022-09-20T07:11:13;17.47;;;7.73;;
21581;SDS011;10952;50.836;4.348;2022-09-20T07:13:43;19.93;;;7.30;;
21581;SDS011;10952;50.836;4.348;2022-09-20T07:16:13;16.70;;;7.93;;
21581;SDS011;10952;50.836;4.348;2022-09-20T07:18:39;20.33;;;7.40;;
21581;SDS011;10952;50.836;4.348;2022-09-20T07:21:07;15.80;;;7.67;;
21581;SDS011;10952;50.836;4.348;2022-09-20T07:23:38;14.67;;;6.93;;
21581;SDS011;10952;50.836;4.348;2022-09-20T07:26:03;18.47;;;9.43;;
21581;SDS011;10952;50.836;4.348;2022-09-20T07:28:31;16.17;;;7.50;;
21581;SDS011;10952;50.836;4.348;2022-09-20T07:30:59;15.10;;;7.33;;
21581;SDS011;10952;50.836;4.348;2022-09-20T07:33:25;16.37;;;7.77;;
21581;SDS011;10952;50.836;4.348;2022-09-20T07:35:51;18.33;;;7.33;;
21581;SDS011;10952;50.836;4.348;2022-09-20T07:38:20;15.10;;;7.13;;
21581;SDS011;10952;50.836;4.348;2022-09-20T07:40:56;14.93;;;6.93;;
21581;SDS011;10952;50.836;4.348;2022-09-20T07:43:23;18.30;;;8.60;;
21581;SDS011;10952;50.836;4.348;2022-09-20T07:45:50;17.33;;;8.20;;
21581;SDS011;10952;50.836;4.348;2022-09-20T07:48:24;15.93;;;7.57;;
21581;SDS011;10952;50.836;4.348;2022-09-20T07:50:54;15.73;;;6.90;;
21581;SDS011;10952;50.836;4.348;2022-09-20T07:53:22;20.20;;;6.90;;
21581;SDS011;10952;50.836;4.348;2022-09-20T07:56:21;18.37;;;7.40;;
21581;SDS011;10952;50.836;4.348;2022-09-20T07:58:42;19.50;;;6.97;;
21581;SDS011;10952;50.836;4.348;2022-09-20T08:01:10;16.47;;;8.30;;
21581;SDS011;10952;50.836;4.348;2022-09-20T08:03:38;15.63;;;7.17;;
21581;SDS011;10952;50.836;4.348;2022-09-20T08:06:08;15.87;;;6.70;;
21581;SDS011;10952;50.836;4.348;2022-09-20T08:08:36;20.47;;;6.73;;
21581;SDS011;10952;50.836;4.348;2022-09-20T08:13:38;18.53;;;6.57;;
21581;SDS011;10952;50.836;4.348;2022-09-20T08:16:05;18.43;;;6.50;;
21581;SDS011;10952;50.836;4.348;2022-09-20T08:18:33;18.00;;;8.37;;
21581;SDS011;10952;50.836;4.348;2022-09-20T08:21:05;16.63;;;6.97;;
21581;SDS011;10952;50.836;4.348;2022-09-20T08:23:33;17.10;;;8.20;;
21581;SDS011;10952;50.836;4.348;2022-09-20T08:26:03;14.90;;;6.03;;
21581;SDS011;10952;50.836;4.348;2022-09-20T08:28:31;10.40;;;5.73;;
21581;SDS011;10952;50.836;4.348;2022-09-20T08:31:04;12.70;;;7.10;;
21581;SDS011;10952;50.836;4.348;2022-09-20T08:33:37;13.70;;;6.47;;
21581;SDS011;10952;50.836;4.348;2022-09-20T08:36:07;13.13;;;5.53;;
21581;SDS011;10952;50.836;4.348;2022-09-20T08:38:36;16.10;;;6.07;;
21581;SDS011;10952;50.836;4.348;2022-09-20T08:46:31;14.83;;;5.93;;
21581;SDS011;10952;50.836;4.348;2022-09-20T08:49:05;15.20;;;5.83;;
21581;SDS011;10952;50.836;4.348;2022-09-20T08:51:37;12.27;;;4.80;;
21581;SDS011;10952;50.836;4.348;2022-09-20T08:54:09;22.30;;;7.47;;
21581;SDS011;10952;50.836;4.348;2022-09-20T08:56:37;15.13;;;5.00;;
21581;SDS011;10952;50.836;4.348;2022-09-20T08:59:04;18.73;;;5.70;;
21581;SDS011;10952;50.836;4.348;2022-09-20T09:01:33;11.17;;;5.03;;
21581;SDS011;10952;50.836;4.348;2022-09-20T09:04:10;15.73;;;5.80;;
21581;SDS011;10952;50.836;4.348;2022-09-20T09:06:48;11.63;;;4.80;;
21581;SDS011;10952;50.836;4.348;2022-09-20T09:09:24;11.07;;;4.97;;
21581;SDS011;10952;50.836;4.348;2022-09-20T09:11:54;9.30;;;4.40;;
21581;SDS011;10952;50.836;4.348;2022-09-20T09:14:26;9.80;;;4.77;;
21581;SDS011;10952;50.836;4.348;2022-09-20T09:17:16;15.37;;;4.90;;
21581;SDS011;10952;50.836;4.348;2022-09-20T09:19:51;9.13;;;4.47;;
21581;SDS011;10952;50.836;4.348;2022-09-20T09:22:27;9.90;;;4.40;;
21581;SDS011;10952;50.836;4.348;2022-09-20T09:30:20;7.60;;;3.50;;
21581;SDS011;10952;50.836;4.348;2022-09-20T09:32:47;8.57;;;3.23;;
21581;SDS011;10952;50.836;4.348;2022-09-20T09:35:23;6.57;;;3.13;;
21581;SDS011;10952;50.836;4.348;2022-09-20T09:38:01;9.93;;;3.43;;
21581;SDS011;10952;50.836;4.348;2022-09-20T09:40:27;13.57;;;3.40;;
21581;SDS011;10952;50.836;4.348;2022-09-20T09:42:59;5.60;;;2.90;;
21581;SDS011;10952;50.836;4.348;2022-09-20T09:48:25;19.97;;;9.03;;
21581;SDS011;10952;50.836;4.348;2022-09-20T09:51:07;6.93;;;3.20;;
21581;SDS011;10952;50.836;4.348;2022-09-20T09:53:35;10.67;;;3.33;;
21581;SDS011;10952;50.836;4.348;2022-09-20T10:04:46;6.00;;;2.70;;
21581;SDS011;10952;50.836;4.348;2022-09-20T10:07:26;11.90;;;3.03;;
21581;SDS011;10952;50.836;4.348;2022-09-20T10:13:39;6.47;;;2.47;;
21581;SDS011;10952;50.836;4.348;2022-09-20T10:29:34;11.37;;;2.33;;
21581;SDS011;10952;50.836;4.348;2022-09-20T10:35:10;9.50;;;2.20;;
21581;SDS011;10952;50.836;4.348;2022-09-20T10:46:12;9.80;;;1.77;;
21581;SDS011;10952;50.836;4.348;2022-09-20T10:48:51;12.57;;;1.87;;
21581;SDS011;10952;50.836;4.348;2022-09-20T11:13:03;10.80;;;3.13;;
21581;SDS011;10952;50.836;4.348;2022-09-20T11:15:48;10.33;;;4.00;;
21581;SDS011;10952;50.836;4.348;2022-09-20T11:18:28;13.63;;;4.90;;
21581;SDS011;10952;50.836;4.348;2022-09-20T11:21:09;10.40;;;4.93;;
21581;SDS011;10952;50.836;4.348;2022-09-20T11:26:43;14.00;;;5.27;;
21581;SDS011;10952;50.836;4.348;2022-09-20T11:29:24;11.87;;;5.90;;
21581;SDS011;10952;50.836;4.348;2022-09-20T11:31:51;20.97;;;5.33;;
21581;SDS011;10952;50.836;4.348;2022-09-20T11:34:30;17.77;;;5.10;;
21581;SDS011;10952;50.836;4.348;2022-09-20T11:36:59;13.17;;;4.47;;
21581;SDS011;10952;50.836;4.348;2022-09-20T11:41:59;11.43;;;4.70;;
21581;SDS011;10952;50.836;4.348;2022-09-20T11:44:26;9.90;;;4.03;;
21581;SDS011;10952;50.836;4.348;2022-09-20T11:47:03;7.97;;;3.60;;
21581;SDS011;10952;50.836;4.348;2022-09-20T11:52:39;7.97;;;3.30;;
21581;SDS011;10952;50.836;4.348;2022-09-20T11:58:15;12.93;;;3.40;;
21581;SDS011;10952;50.836;4.348;2022-09-20T12:00:47;7.47;;;3.07;;
21581;SDS011;10952;50.836;4.348;2022-09-20T12:05:49;11.53;;;3.60;;
21581;SDS011;10952;50.836;4.348;2022-09-20T12:08:25;10.03;;;2.10;;
21581;SDS011;10952;50.836;4.348;2022-09-20T12:11:05;13.10;;;2.10;;
21581;SDS011;10952;50.836;4.348;2022-09-20T12:13:35;7.37;;;1.60;;
21581;SDS011;10952;50.836;4.348;2022-09-20T12:16:05;7.50;;;1.73;;
21581;SDS011;10952;50.836;4.348;2022-09-20T12:21:08;3.63;;;1.33;;
21581;SDS011;10952;50.836;4.348;2022-09-20T12:23:45;6.53;;;1.27;;
21581;SDS011;10952;50.836;4.348;2022-09-20T12:28:52;7.60;;;2.70;;
21581;SDS011;10952;50.836;4.348;2022-09-20T12:33:55;7.37;;;2.13;;
21581;SDS011;10952;50.836;4.348;2022-09-20T12:36:21;7.77;;;2.83;;
21581;SDS011;10952;50.836;4.348;2022-09-20T12:38:55;7.37;;;2.57;;
21581;SDS011;10952;50.836;4.348;2022-09-20T12:41:24;6.67;;;1.63;;
21581;SDS011;10952;50.836;4.348;2022-09-20T12:43:55;6.80;;;1.80;;
21581;SDS011;10952;50.836;4.348;2022-09-20T12:46:38;6.23;;;1.77;;
21581;SDS011;10952;50.836;4.348;2022-09-20T12:55:12;11.17;;;1.87;;
21581;SDS011;10952;50.836;4.348;2022-09-20T13:00:41;8.80;;;1.57;;
21581;SDS011;10952;50.836;4.348;2022-09-20T13:05:47;12.70;;;2.60;;
21581;SDS011;10952;50.836;4.348;2022-09-20T13:08:20;6.83;;;1.90;;
21581;SDS011;10952;50.836;4.348;2022-09-20T13:10:58;5.50;;;1.67;;
21581;SDS011;10952;50.836;4.348;2022-09-20T13:14:17;9.93;;;2.30;;
21581;SDS011;10952;50.836;4.348;2022-09-20T13:21:39;7.17;;;1.30;;
21581;SDS011;10952;50.836;4.348;2022-09-20T13:24:17;6.33;;;1.57;;
21581;SDS011;10952;50.836;4.348;2022-09-20T13:26:47;5.53;;;1.50;;
21581;SDS011;10952;50.836;4.348;2022-09-20T13:29:48;5.80;;;1.57;;
21581;SDS011;10952;50.836;4.348;2022-09-20T13:34:40;7.37;;;1.83;;
21581;SDS011;10952;50.836;4.348;2022-09-20T13:37:12;10.50;;;3.37;;
21581;SDS011;10952;50.836;4.348;2022-09-20T13:39:45;10.80;;;1.97;;
21581;SDS011;10952;50.836;4.348;2022-09-20T13:42:13;7.50;;;2.80;;
21581;SDS011;10952;50.836;4.348;2022-09-20T13:44:44;5.73;;;1.73;;
21581;SDS011;10952;50.836;4.348;2022-09-20T13:47:22;5.93;;;1.60;;
21581;SDS011;10952;50.836;4.348;2022-09-20T13:49:50;10.63;;;1.87;;
21581;SDS011;10952;50.836;4.348;2022-09-20T13:52:26;10.93;;;1.60;;
21581;SDS011;10952;50.836;4.348;2022-09-20T13:54:54;14.93;;;1.70;;
21581;SDS011;10952;50.836;4.348;2022-09-20T13:57:21;6.30;;;1.93;;
21581;SDS011;10952;50.836;4.348;2022-09-20T13:59:51;6.23;;;1.60;;
21581;SDS011;10952;50.836;4.348;2022-09-20T14:02:31;5.30;;;1.30;;
21581;SDS011;10952;50.836;4.348;2022-09-20T14:04:59;7.87;;;1.37;;
21581;SDS011;10952;50.836;4.348;2022-09-20T14:07:31;6.03;;;1.60;;
21581;SDS011;10952;50.836;4.348;2022-09-20T14:10:00;9.00;;;1.30;;
21581;SDS011;10952;50.836;4.348;2022-09-20T14:12:26;6.37;;;1.40;;
21581;SDS011;10952;50.836;4.348;2022-09-20T14:14:52;4.83;;;1.30;;
21581;SDS011;10952;50.836;4.348;2022-09-20T14:17:19;5.93;;;1.27;;
21581;SDS011;10952;50.836;4.348;2022-09-20T14:19:49;5.53;;;1.30;;
21581;SDS011;10952;50.836;4.348;2022-09-20T14:22:21;5.37;;;1.20;;
21581;SDS011;10952;50.836;4.348;2022-09-20T14:25:00;5.53;;;1.30;;
21581;SDS011;10952;50.836;4.348;2022-09-20T14:27:47;6.83;;;1.57;;
21581;SDS011;10952;50.836;4.348;2022-09-20T14:30:33;4.57;;;1.47;;
21581;SDS011;10952;50.836;4.348;2022-09-20T14:33:04;4.50;;;1.40;;
21581;SDS011;10952;50.836;4.348;2022-09-20T14:35:36;5.67;;;1.87;;
21581;SDS011;10952;50.836;4.348;2022-09-20T14:38:06;7.43;;;2.10;;
21581;SDS011;10952;50.836;4.348;2022-09-20T14:40:46;10.73;;;2.73;;
21581;SDS011;10952;50.836;4.348;2022-09-20T14:43:20;9.37;;;2.93;;
21581;SDS011;10952;50.836;4.348;2022-09-20T14:45:55;10.10;;;5.60;;
21581;SDS011;10952;50.836;4.348;2022-09-20T14:48:32;9.87;;;2.50;;
21581;SDS011;10952;50.836;4.348;2022-09-20T14:51:08;6.17;;;1.80;;
21581;SDS011;10952;50.836;4.348;2022-09-20T14:53:41;3.90;;;1.43;;
21581;SDS011;10952;50.836;4.348;2022-09-20T14:56:09;4.67;;;2.40;;
21581;SDS011;10952;50.836;4.348;2022-09-20T15:01:29;7.60;;;2.03;;
21581;SDS011;10952;50.836;4.348;2022-09-20T15:03:57;5.80;;;1.53;;
21581;SDS011;10952;50.836;4.348;2022-09-20T15:06:29;4.93;;;1.60;;
21581;SDS011;10952;50.836;4.348;2022-09-20T15:08:55;4.73;;;1.47;;
21581;SDS011;10952;50.836;4.348;2022-09-20T15:11:24;10.10;;;1.73;;
21581;SDS011;10952;50.836;4.348;2022-09-20T15:13:51;6.13;;;2.00;;
21581;SDS011;10952;50.836;4.348;2022-09-20T15:16:17;8.00;;;2.70;;
21581;SDS011;10952;50.836;4.348;2022-09-20T15:18:45;9.83;;;1.90;;
21581;SDS011;10952;50.836;4.348;2022-09-20T15:21:11;8.47;;;2.03;;
21581;SDS011;10952;50.836;4.348;2022-09-20T15:23:37;5.30;;;1.67;;
21581;SDS011;10952;50.836;4.348;2022-09-20T15:26:04;7.87;;;2.00;;
21581;SDS011;10952;50.836;4.348;2022-09-20T15:28:30;10.63;;;1.50;;
21581;SDS011;10952;50.836;4.348;2022-09-20T15:30:58;8.10;;;1.40;;
21581;SDS011;10952;50.836;4.348;2022-09-20T15:33:24;7.47;;;1.83;;
21581;SDS011;10952;50.836;4.348;2022-09-20T15:35:55;9.57;;;1.87;;
21581;SDS011;10952;50.836;4.348;2022-09-20T15:38:21;9.37;;;1.57;;
21581;SDS011;10952;50.836;4.348;2022-09-20T15:40:50;6.80;;;1.37;;
21581;SDS011;10952;50.836;4.348;2022-09-20T15:43:18;5.73;;;1.43;;
21581;SDS011;10952;50.836;4.348;2022-09-20T15:48:18;5.90;;;1.40;;
21581;SDS011;10952;50.836;4.348;2022-09-20T15:53:29;9.87;;;2.03;;
21581;SDS011;10952;50.836;4.348;2022-09-20T15:55:58;6.90;;;2.93;;
21581;SDS011;10952;50.836;4.348;2022-09-20T15:58:29;7.40;;;1.90;;
21581;SDS011;10952;50.836;4.348;2022-09-20T16:01:02;5.73;;;1.53;;
21581;SDS011;10952;50.836;4.348;2022-09-20T16:03:29;5.83;;;1.53;;
21581;SDS011;10952;50.836;4.348;2022-09-20T16:06:04;5.37;;;1.50;;
21581;SDS011;10952;50.836;4.348;2022-09-20T16:08:35;7.03;;;1.93;;
21581;SDS011;10952;50.836;4.348;2022-09-20T16:11:02;3.43;;;1.20;;
21581;SDS011;10952;50.836;4.348;2022-09-20T16:13:30;5.37;;;1.30;;
21581;SDS011;10952;50.836;4.348;2022-09-20T16:15:56;6.40;;;1.60;;
21581;SDS011;10952;50.836;4.348;2022-09-20T16:18:24;6.90;;;1.50;;
21581;SDS011;10952;50.836;4.348;2022-09-20T16:21:10;4.87;;;1.67;;
21581;SDS011;10952;50.836;4.348;2022-09-20T16:23:37;6.60;;;1.30;;
21581;SDS011;10952;50.836;4.348;2022-09-20T16:26:07;5.87;;;1.37;;
21581;SDS011;10952;50.836;4.348;2022-09-20T16:28:37;4.63;;;1.60;;
21581;SDS011;10952;50.836;4.348;2022-09-20T16:34:02;5.73;;;1.63;;
21581;SDS011;10952;50.836;4.348;2022-09-20T16:36:32;6.37;;;1.50;;
21581;SDS011;10952;50.836;4.348;2022-09-20T16:38:58;6.47;;;1.87;;
21581;SDS011;10952;50.836;4.348;2022-09-20T16:41:25;7.17;;;1.83;;
21581;SDS011;10952;50.836;4.348;2022-09-20T16:43:52;4.57;;;1.97;;
21581;SDS011;10952;50.836;4.348;2022-09-20T16:46:19;8.63;;;1.83;;
21581;SDS011;10952;50.836;4.348;2022-09-20T16:48:47;7.43;;;1.50;;
21581;SDS011;10952;50.836;4.348;2022-09-20T16:51:18;5.27;;;1.90;;
21581;SDS011;10952;50.836;4.348;2022-09-20T16:54:13;5.33;;;1.80;;
21581;SDS011;10952;50.836;4.348;2022-09-20T16:56:44;6.57;;;1.90;;
21581;SDS011;10952;50.836;4.348;2022-09-20T16:59:15;6.77;;;2.47;;
21581;SDS011;10952;50.836;4.348;2022-09-20T17:01:44;6.00;;;2.47;;
21581;SDS011;10952;50.836;4.348;2022-09-20T17:04:12;6.67;;;2.57;;
21581;SDS011;10952;50.836;4.348;2022-09-20T17:06:38;8.47;;;2.87;;
21581;SDS011;10952;50.836;4.348;2022-09-20T17:09:04;5.43;;;2.43;;
21581;SDS011;10952;50.836;4.348;2022-09-20T17:11:33;7.50;;;2.93;;
21581;SDS011;10952;50.836;4.348;2022-09-20T17:14:02;7.47;;;2.30;;
21581;SDS011;10952;50.836;4.348;2022-09-20T17:16:29;11.00;;;2.50;;
21581;SDS011;10952;50.836;4.348;2022-09-20T17:18:59;9.90;;;2.70;;
21581;SDS011;10952;50.836;4.348;2022-09-20T17:21:26;9.03;;;2.27;;
21581;SDS011;10952;50.836;4.348;2022-09-20T17:23:55;8.43;;;2.10;;
21581;SDS011;10952;50.836;4.348;2022-09-20T17:26:23;9.40;;;2.30;;
21581;SDS011;10952;50.836;4.348;2022-09-20T17:28:53;9.03;;;2.40;;
21581;SDS011;10952;50.836;4.348;2022-09-20T17:31:20;15.87;;;3.33;;
21581;SDS011;10952;50.836;4.348;2022-09-20T17:33:49;14.03;;;3.20;;
21581;SDS011;10952;50.836;4.348;2022-09-20T17:36:16;13.73;;;2.70;;
21581;SDS011;10952;50.836;4.348;2022-09-20T17:38:43;8.83;;;2.37;;
21581;SDS011;10952;50.836;4.348;2022-09-20T17:41:17;12.10;;;3.50;;
21581;SDS011;10952;50.836;4.348;2022-09-20T17:43:44;6.73;;;2.60;;
21581;SDS011;10952;50.836;4.348;2022-09-20T17:48:38;10.10;;;4.23;;
21581;SDS011;10952;50.836;4.348;2022-09-20T17:51:05;10.87;;;3.10;;
21581;SDS011;10952;50.836;4.348;2022-09-20T17:53:33;8.20;;;3.13;;
21581;SDS011;10952;50.836;4.348;2022-09-20T17:56:00;12.57;;;3.63;;
21581;SDS011;10952;50.836;4.348;2022-09-20T17:58:26;6.27;;;2.80;;
21581;SDS011;10952;50.836;4.348;2022-09-20T18:00:52;8.80;;;3.00;;
21581;SDS011;10952;50.836;4.348;2022-09-20T18:03:25;9.40;;;3.67;;
21581;SDS011;10952;50.836;4.348;2022-09-20T18:05:51;15.80;;;3.30;;
21581;SDS011;10952;50.836;4.348;2022-09-20T18:08:17;15.43;;;3.90;;
21581;SDS011;10952;50.836;4.348;2022-09-20T18:10:53;16.80;;;4.30;;
21581;SDS011;10952;50.836;4.348;2022-09-20T18:13:20;13.20;;;4.87;;
21581;SDS011;10952;50.836;4.348;2022-09-20T18:15:46;14.53;;;4.50;;
21581;SDS011;10952;50.836;4.348;2022-09-20T18:18:12;12.53;;;4.67;;
21581;SDS011;10952;50.836;4.348;2022-09-20T18:20:40;11.13;;;3.97;;
21581;SDS011;10952;50.836;4.348;2022-09-20T18:23:06;16.13;;;4.70;;
21581;SDS011;10952;50.836;4.348;2022-09-20T18:25:34;13.13;;;4.87;;
21581;SDS011;10952;50.836;4.348;2022-09-20T18:28:20;11.83;;;4.07;;
21581;SDS011;10952;50.836;4.348;2022-09-20T18:30:46;26.10;;;13.10;;
21581;SDS011;10952;50.836;4.348;2022-09-20T18:33:16;14.03;;;5.00;;
21581;SDS011;10952;50.836;4.348;2022-09-20T18:35:42;8.90;;;3.97;;
21581;SDS011;10952;50.836;4.348;2022-09-20T18:38:08;13.50;;;4.67;;
21581;SDS011;10952;50.836;4.348;2022-09-20T18:40:34;11.30;;;4.50;;
21581;SDS011;10952;50.836;4.348;2022-09-20T18:43:03;8.60;;;3.83;;
21581;SDS011;10952;50.836;4.348;2022-09-20T18:45:31;14.37;;;4.60;;
21581;SDS011;10952;50.836;4.348;2022-09-20T18:47:58;9.33;;;4.73;;
21581;SDS011;10952;50.836;4.348;2022-09-20T18:50:24;11.33;;;4.37;;
21581;SDS011;10952;50.836;4.348;2022-09-20T18:52:54;13.93;;;5.20;;
21581;SDS011;10952;50.836;4.348;2022-09-20T18:55:20;18.20;;;4.70;;
21581;SDS011;10952;50.836;4.348;2022-09-20T18:57:49;13.60;;;5.20;;
21581;SDS011;10952;50.836;4.348;2022-09-20T19:00:15;18.37;;;5.97;;
21581;SDS011;10952;50.836;4.348;2022-09-20T19:05:42;13.83;;;5.90;;
21581;SDS011;10952;50.836;4.348;2022-09-20T19:08:27;13.43;;;5.10;;
21581;SDS011;10952;50.836;4.348;2022-09-20T19:11:09;15.20;;;7.90;;
21581;SDS011;10952;50.836;4.348;2022-09-20T19:13:44;14.13;;;6.20;;
21581;SDS011;10952;50.836;4.348;2022-09-20T19:16:25;15.47;;;7.20;;
21581;SDS011;10952;50.836;4.348;2022-09-20T19:21:35;8.47;;;4.57;;
21581;SDS011;10952;50.836;4.348;2022-09-20T19:27:02;13.87;;;4.60;;
21581;SDS011;10952;50.836;4.348;2022-09-20T19:29:30;16.63;;;5.33;;
21581;SDS011;10952;50.836;4.348;2022-09-20T19:31:57;19.17;;;6.63;;
21581;SDS011;10952;50.836;4.348;2022-09-20T19:34:25;17.53;;;6.30;;
21581;SDS011;10952;50.836;4.348;2022-09-20T19:39:50;13.77;;;5.50;;
21581;SDS011;10952;50.836;4.348;2022-09-20T19:50:53;11.30;;;5.30;;
21581;SDS011;10952;50.836;4.348;2022-09-20T19:53:21;15.50;;;5.60;;
21581;SDS011;10952;50.836;4.348;2022-09-20T19:55:52;10.63;;;4.77;;
21581;SDS011;10952;50.836;4.348;2022-09-20T19:58:38;15.23;;;5.20;;
21581;SDS011;10952;50.836;4.348;2022-09-20T20:01:09;10.00;;;5.33;;
21581;SDS011;10952;50.836;4.348;2022-09-20T20:03:37;19.17;;;8.73;;
21581;SDS011;10952;50.836;4.348;2022-09-20T20:11:16;20.77;;;6.80;;
21581;SDS011;10952;50.836;4.348;2022-09-20T20:14:05;14.33;;;6.07;;
21581;SDS011;10952;50.836;4.348;2022-09-20T20:16:55;10.83;;;5.37;;
21581;SDS011;10952;50.836;4.348;2022-09-20T20:25:31;11.30;;;5.47;;
21581;SDS011;10952;50.836;4.348;2022-09-20T20:28:12;10.17;;;5.60;;
21581;SDS011;10952;50.836;4.348;2022-09-20T20:30:40;12.37;;;5.17;;
21581;SDS011;10952;50.836;4.348;2022-09-20T20:33:12;16.87;;;5.60;;
21581;SDS011;10952;50.836;4.348;2022-09-20T20:35:50;17.73;;;5.83;;
21581;SDS011;10952;50.836;4.348;2022-09-20T20:38:24;16.60;;;6.50;;
21581;SDS011;10952;50.836;4.348;2022-09-20T20:40:57;13.33;;;6.10;;
21581;SDS011;10952;50.836;4.348;2022-09-20T20:43:31;11.93;;;6.47;;
21581;SDS011;10952;50.836;4.348;2022-09-20T20:46:04;12.73;;;6.60;;
21581;SDS011;10952;50.836;4.348;2022-09-20T20:48:33;16.47;;;6.87;;
21581;SDS011;10952;50.836;4.348;2022-09-20T20:51:07;13.07;;;6.70;;
21581;SDS011;10952;50.836;4.348;2022-09-20T20:53:36;17.63;;;7.60;;
21581;SDS011;10952;50.836;4.348;2022-09-20T20:56:07;14.23;;;6.93;;
21581;SDS011;10952;50.836;4.348;2022-09-20T20:58:37;18.33;;;7.67;;
21581;SDS011;10952;50.836;4.348;2022-09-20T21:01:11;19.33;;;7.70;;
21581;SDS011;10952;50.836;4.348;2022-09-20T21:03:40;16.30;;;6.93;;
21581;SDS011;10952;50.836;4.348;2022-09-20T21:06:09;14.00;;;8.03;;
21581;SDS011;10952;50.836;4.348;2022-09-20T21:08:37;15.97;;;7.13;;
21581;SDS011;10952;50.836;4.348;2022-09-20T21:11:11;15.13;;;6.93;;
21581;SDS011;10952;50.836;4.348;2022-09-20T21:13:38;14.77;;;7.73;;
21581;SDS011;10952;50.836;4.348;2022-09-20T21:16:08;14.93;;;7.37;;
21581;SDS011;10952;50.836;4.348;2022-09-20T21:18:36;16.73;;;8.23;;